createdAt,value
2023-04-03T00:02:13.976Z,77.20
2023-04-03T00:04:42.444Z,77.60
2023-04-03T00:07:11.067Z,77.70
2023-04-03T00:09:41.301Z,77.90
2023-04-03T00:12:09.311Z,78.10
2023-04-03T00:14:37.403Z,78.10
2023-04-03T00:17:05.412Z,78.20
2023-04-03T00:19:33.626Z,78.40
2023-04-03T00:22:01.811Z,78.50
2023-04-03T00:24:29.785Z,78.40
2023-04-03T00:26:58.074Z,78.30
2023-04-03T00:29:26.043Z,78.40
2023-04-03T00:31:54.238Z,78.90
2023-04-03T00:34:26.891Z,78.70
2023-04-03T00:37:00.974Z,78.70
2023-04-03T00:39:29.380Z,78.50
2023-04-03T00:41:57.510Z,78.70
2023-04-03T00:44:34.864Z,79.40
2023-04-03T00:47:07.281Z,79.40
2023-04-03T00:49:37.673Z,79.80
2023-04-03T00:52:10.250Z,79.80
2023-04-03T00:54:38.902Z,79.60
2023-04-03T00:57:09.969Z,80.10
2023-04-03T00:59:42.221Z,80.40
2023-04-03T01:02:10.375Z,80.10
2023-04-03T01:04:42.867Z,80.60
2023-04-03T01:07:16.659Z,80.60
2023-04-03T01:09:46.733Z,80.80
2023-04-03T01:12:17.799Z,80.80
2023-04-03T01:14:47.682Z,81.10
2023-04-03T01:17:34.286Z,81.40
2023-04-03T01:20:11.948Z,81.20
2023-04-03T01:22:52.894Z,81.40
2023-04-03T01:25:21.070Z,81.80
2023-04-03T01:27:52.491Z,81.50
2023-04-03T01:30:21.931Z,82.00
2023-04-03T01:32:52.624Z,82.40
2023-04-03T01:35:21.418Z,82.40
2023-04-03T01:37:49.379Z,82.50
2023-04-03T01:40:17.462Z,83.00
2023-04-03T01:42:46.852Z,82.80
2023-04-03T01:45:15.333Z,83.00
2023-04-03T01:47:45.998Z,83.00
2023-04-03T01:50:16.386Z,83.10
2023-04-03T01:52:47.027Z,83.80
2023-04-03T01:55:15.302Z,83.60
2023-04-03T01:57:45.520Z,83.80
2023-04-03T02:00:14.241Z,83.90
2023-04-03T02:02:42.948Z,84.20
2023-04-03T02:05:13.507Z,84.60
2023-04-03T02:07:41.778Z,84.20
2023-04-03T02:10:10.198Z,84.70
2023-04-03T02:12:38.288Z,84.50
2023-04-03T02:15:06.810Z,84.50
2023-04-03T02:17:39.025Z,84.60
2023-04-03T02:20:07.588Z,84.50
2023-04-03T02:22:35.563Z,85.00
2023-04-03T02:25:04.052Z,85.20
2023-04-03T02:27:34.493Z,85.30
2023-04-03T02:30:02.651Z,85.70
2023-04-03T02:32:31.105Z,85.80
2023-04-03T02:35:02.083Z,85.70
2023-04-03T02:37:31.500Z,86.30
2023-04-03T02:40:00.187Z,86.10
2023-04-03T02:42:32.047Z,86.40
2023-04-03T02:45:01.874Z,86.10
2023-04-03T02:47:30.052Z,86.50
2023-04-03T02:49:58.317Z,86.20
2023-04-03T02:52:26.650Z,86.70
2023-04-03T02:54:59.872Z,87.10
2023-04-03T02:57:28.423Z,87.40
2023-04-03T02:59:56.541Z,87.30
2023-04-03T03:02:24.638Z,86.80
2023-04-03T03:04:52.877Z,86.80
2023-04-03T03:07:20.996Z,87.00
2023-04-03T03:09:49.144Z,87.50
2023-04-03T03:12:24.755Z,87.90
2023-04-03T03:14:52.874Z,88.30
2023-04-03T03:17:23.293Z,88.30
2023-04-03T03:19:51.348Z,88.50
2023-04-03T03:22:22.092Z,88.30
2023-04-03T03:24:50.330Z,88.70
2023-04-03T03:27:18.429Z,88.30
2023-04-03T03:29:46.649Z,88.80
2023-04-03T03:32:16.018Z,89.10
2023-04-03T03:34:44.054Z,89.00
2023-04-03T03:37:12.066Z,89.60
2023-04-03T03:39:40.361Z,89.50
2023-04-03T03:42:08.393Z,89.50
2023-04-03T03:44:36.756Z,90.00
2023-04-03T03:47:07.472Z,90.20
2023-04-03T03:49:35.840Z,90.20
2023-04-03T03:52:03.916Z,90.40
2023-04-03T03:54:32.200Z,90.30
2023-04-03T03:57:02.694Z,90.50
2023-04-03T03:59:32.544Z,90.60
2023-04-03T04:02:01.775Z,90.70
2023-04-03T04:04:29.854Z,90.50
2023-04-03T04:06:58.008Z,90.80
2023-04-03T04:09:28.631Z,90.40
2023-04-03T04:12:02.040Z,90.70
2023-04-03T04:14:32.673Z,90.80
2023-04-03T04:17:03.731Z,90.90
2023-04-03T04:19:32.293Z,90.90
2023-04-03T04:22:02.916Z,91.00
2023-04-03T04:24:32.941Z,90.80
2023-04-03T04:27:02.749Z,90.60
2023-04-03T04:29:38.601Z,90.40
2023-04-03T04:32:10.218Z,90.40
2023-04-03T04:34:38.822Z,90.40
2023-04-03T04:37:07.051Z,90.40
2023-04-03T04:39:36.202Z,90.00
2023-04-03T04:42:05.113Z,89.80
2023-04-03T04:44:36.789Z,90.00
2023-04-03T04:47:05.375Z,89.80
2023-04-03T04:49:33.680Z,89.20
2023-04-03T04:52:02.242Z,88.80
2023-04-03T04:54:33.427Z,89.00
2023-04-03T04:57:01.595Z,88.60
2023-04-03T04:59:33.192Z,88.30
2023-04-03T05:02:01.479Z,88.10
2023-04-03T05:04:29.677Z,87.60
2023-04-03T05:07:04.994Z,87.30
2023-04-03T05:09:36.312Z,86.60
2023-04-03T05:12:04.808Z,86.00
2023-04-03T05:14:39.326Z,85.60
2023-04-03T05:17:09.750Z,84.90
2023-04-03T05:19:41.778Z,84.10
2023-04-03T05:22:11.428Z,83.60
2023-04-03T05:24:39.424Z,82.40
2023-04-03T05:27:09.546Z,81.40
2023-04-03T05:29:41.799Z,81.60
2023-04-03T05:32:12.102Z,80.40
2023-04-03T05:34:40.399Z,80.30
2023-04-03T05:37:08.874Z,80.00
2023-04-03T05:39:39.725Z,79.20
2023-04-03T05:42:08.720Z,79.00
2023-04-03T05:44:36.724Z,79.00
2023-04-03T05:47:07.434Z,78.80
2023-04-03T05:49:36.357Z,77.90
2023-04-03T05:52:04.472Z,78.20
2023-04-03T05:54:36.839Z,77.90
2023-04-03T05:57:20.195Z,78.20
2023-04-03T05:59:48.636Z,77.70
2023-04-03T06:02:18.576Z,77.60
2023-04-03T06:04:52.024Z,77.50
2023-04-03T06:07:23.867Z,77.10
2023-04-03T06:09:54.514Z,76.70
2023-04-03T06:12:23.181Z,76.30
2023-04-03T06:14:51.499Z,75.60
2023-04-03T06:17:23.118Z,75.20
2023-04-03T06:19:51.456Z,74.60
2023-04-03T06:22:19.579Z,74.40
2023-04-03T06:24:50.617Z,73.20
2023-04-03T06:27:18.942Z,72.60
2023-04-03T06:29:47.082Z,71.70
2023-04-03T06:32:17.849Z,71.30
2023-04-03T06:34:49.042Z,70.80
2023-04-03T06:37:21.445Z,70.20
2023-04-03T06:39:49.917Z,69.60
2023-04-03T06:42:17.969Z,69.10
2023-04-03T06:44:55.711Z,67.70
2023-04-03T06:47:23.801Z,66.90
2023-04-03T06:49:52.129Z,66.50
2023-04-03T06:52:26.618Z,66.60
2023-04-03T06:54:58.532Z,66.40
2023-04-03T06:57:27.107Z,65.60
2023-04-03T06:59:55.385Z,65.50
2023-04-03T07:02:23.431Z,65.10
2023-04-03T07:04:51.825Z,64.50
2023-04-03T07:07:20.748Z,64.40
2023-04-03T07:09:49.519Z,64.00
2023-04-03T07:12:18.170Z,63.70
2023-04-03T07:14:48.438Z,63.30
2023-04-03T07:17:16.516Z,62.80
2023-04-03T07:19:46.774Z,61.60
2023-04-03T07:22:14.820Z,59.10
2023-04-03T07:24:45.870Z,58.10
2023-04-03T07:27:14.213Z,58.00
2023-04-03T07:29:42.244Z,58.10
2023-04-03T07:32:10.204Z,57.20
2023-04-03T07:34:38.430Z,56.80
2023-04-03T07:37:06.538Z,56.80
2023-04-03T07:39:37.009Z,56.30
2023-04-03T07:42:05.078Z,56.60
2023-04-03T07:44:33.910Z,55.50
2023-04-03T07:47:02.086Z,55.70
2023-04-03T07:49:30.312Z,53.80
2023-04-03T07:51:58.574Z,52.70
2023-04-03T07:54:26.888Z,51.60
2023-04-03T07:56:54.914Z,51.00
2023-04-03T07:59:23.000Z,50.80
2023-04-03T08:01:53.546Z,50.90
2023-04-03T08:04:21.621Z,49.40
2023-04-03T08:06:50.462Z,49.30
2023-04-03T08:09:19.831Z,48.90
2023-04-03T08:11:49.491Z,49.00
2023-04-03T08:14:19.509Z,49.80
2023-04-03T08:16:48.934Z,49.70
2023-04-03T08:19:26.125Z,49.40
2023-04-03T08:21:57.160Z,48.70
2023-04-03T08:24:26.851Z,49.10
2023-04-03T08:26:55.211Z,49.10
2023-04-03T08:29:23.577Z,49.20
2023-04-03T08:31:51.925Z,48.60
2023-04-03T08:34:21.096Z,48.10
2023-04-03T08:36:52.109Z,47.00
2023-04-03T08:39:22.670Z,47.10
2023-04-03T08:41:51.234Z,46.80
2023-04-03T08:44:38.758Z,46.40
2023-04-03T08:47:06.860Z,46.20
2023-04-03T08:49:48.556Z,44.80
2023-04-03T08:52:21.170Z,43.30
2023-04-03T08:54:54.278Z,42.50
2023-04-03T08:57:28.374Z,43.00
2023-04-03T08:59:58.251Z,42.90
2023-04-03T09:02:32.461Z,42.90
2023-04-03T09:05:01.175Z,42.80
2023-04-03T09:07:36.890Z,42.40
2023-04-03T09:10:05.403Z,42.40
2023-04-03T09:12:40.663Z,41.80
2023-04-03T09:15:35.576Z,42.20
2023-04-03T09:18:23.850Z,42.20
2023-04-03T09:21:10.773Z,43.50
2023-04-03T09:23:51.717Z,42.40
2023-04-03T09:26:43.593Z,41.70
2023-04-03T09:29:18.538Z,40.60
2023-04-03T09:31:49.533Z,40.80
2023-04-03T09:34:26.248Z,40.40
2023-04-03T09:37:07.224Z,40.00
2023-04-03T09:39:51.375Z,39.90
2023-04-03T09:42:24.202Z,39.70
2023-04-03T09:44:59.779Z,40.00
2023-04-03T09:47:35.555Z,40.10
2023-04-03T09:50:30.587Z,40.10
2023-04-03T09:52:58.653Z,40.30
2023-04-03T09:55:33.681Z,40.20
2023-04-03T09:58:03.186Z,39.40
2023-04-03T10:00:31.424Z,39.60
2023-04-03T10:02:59.930Z,40.70
2023-04-03T10:05:36.734Z,41.20
2023-04-03T10:08:16.974Z,41.50
2023-04-03T10:10:50.215Z,40.90
2023-04-03T10:13:22.787Z,39.50
2023-04-03T10:16:00.633Z,41.30
2023-04-03T10:18:29.007Z,42.10
2023-04-03T10:21:00.538Z,43.20
2023-04-03T10:23:33.128Z,43.30
2023-04-03T10:26:05.901Z,42.20
2023-04-03T10:28:47.053Z,41.80
2023-04-03T10:31:18.621Z,42.10
2023-04-03T10:34:02.244Z,41.90
2023-04-03T10:36:32.528Z,42.40
2023-04-03T10:39:00.648Z,42.40
2023-04-03T10:41:38.065Z,43.30
2023-04-03T10:44:27.834Z,43.60
2023-04-03T10:47:14.687Z,43.30
2023-04-03T10:49:59.965Z,43.80
2023-04-03T10:52:47.068Z,44.10
2023-04-03T10:55:15.122Z,44.40
2023-04-03T10:57:47.170Z,43.70
2023-04-03T11:00:22.998Z,43.40
2023-04-03T11:02:51.307Z,44.20
2023-04-03T11:05:40.359Z,45.30
2023-04-03T11:08:15.015Z,44.10
2023-04-03T11:10:48.765Z,44.10
2023-04-03T11:13:22.093Z,43.90
2023-04-03T11:15:50.775Z,42.00
2023-04-03T11:18:20.629Z,41.50
2023-04-03T11:20:55.593Z,43.10
2023-04-03T11:23:35.585Z,42.60
2023-04-03T11:26:10.105Z,44.00
2023-04-03T11:28:38.841Z,44.60
2023-04-03T11:31:11.280Z,45.30
2023-04-03T11:33:42.611Z,45.70
2023-04-03T11:36:24.885Z,46.10
2023-04-03T11:38:58.172Z,45.80
2023-04-03T11:41:28.239Z,46.50
2023-04-03T11:44:00.800Z,46.80
2023-04-03T11:46:47.595Z,46.30
2023-04-03T11:49:34.413Z,46.10
2023-04-03T11:52:04.747Z,46.20
2023-04-03T11:54:44.797Z,45.90
2023-04-03T11:57:32.518Z,45.90
2023-04-03T12:00:00.773Z,47.10
2023-04-03T12:05:27.613Z,49.00
2023-04-03T12:08:31.102Z,49.60
2023-04-03T12:11:14.237Z,50.30
2023-04-03T12:13:52.151Z,51.40
2023-04-03T12:16:30.158Z,51.60
2023-04-03T12:19:05.109Z,52.00
2023-04-03T12:21:33.735Z,51.50
2023-04-03T12:24:13.875Z,51.60
2023-04-03T12:26:48.943Z,51.30
2023-04-03T12:29:22.884Z,51.20
2023-04-03T12:32:03.193Z,50.80
2023-04-03T12:34:49.815Z,50.70
2023-04-03T12:37:28.061Z,50.40
2023-04-03T12:40:11.265Z,50.30
2023-04-03T12:42:54.214Z,50.90
2023-04-03T12:45:23.700Z,51.60
2023-04-03T12:47:53.694Z,52.00
2023-04-03T12:50:35.338Z,52.90
2023-04-03T12:53:03.395Z,53.10
2023-04-03T12:55:31.661Z,53.60
2023-04-03T12:58:15.059Z,54.00
2023-04-03T13:00:43.040Z,53.00
2023-04-03T13:03:24.667Z,53.40
2023-04-03T13:05:52.714Z,54.30
2023-04-03T13:08:21.416Z,54.50
2023-04-03T13:10:55.723Z,54.00
2023-04-03T13:13:24.626Z,54.50
2023-04-03T13:15:54.167Z,55.20
2023-04-03T13:18:30.596Z,55.80
2023-04-03T13:21:02.602Z,56.10
2023-04-03T13:23:32.934Z,55.50
2023-04-03T13:26:04.757Z,56.70
2023-04-03T13:28:33.408Z,57.70
2023-04-03T13:31:07.194Z,58.40
2023-04-03T13:33:39.209Z,58.40
2023-04-03T13:36:19.111Z,58.30
2023-04-03T13:38:47.342Z,58.60
2023-04-03T13:41:24.586Z,60.90
2023-04-03T13:43:53.765Z,60.90
2023-04-03T13:46:30.643Z,60.80
2023-04-03T13:48:58.687Z,60.50
2023-04-03T13:51:30.769Z,60.40
2023-04-03T13:54:00.336Z,60.30
2023-04-03T13:56:33.810Z,60.50
2023-04-03T13:59:04.709Z,60.50
2023-04-03T14:01:45.041Z,59.80
2023-04-03T14:04:27.046Z,60.00
2023-04-03T14:06:55.582Z,60.00
2023-04-03T14:09:24.880Z,60.10
2023-04-03T14:11:55.077Z,61.00
2023-04-03T14:14:24.923Z,62.50
2023-04-03T14:16:57.733Z,63.50
2023-04-03T14:19:28.796Z,63.50
2023-04-03T14:21:57.256Z,63.50
2023-04-03T14:24:25.273Z,63.50
2023-04-03T14:26:54.674Z,63.70
2023-04-03T14:29:24.137Z,63.90
2023-04-03T14:32:07.504Z,64.00
2023-04-03T14:34:42.977Z,64.20
2023-04-03T14:37:12.472Z,64.30
2023-04-03T14:39:41.353Z,64.50
2023-04-03T14:42:32.758Z,64.40
2023-04-03T14:45:01.913Z,64.60
2023-04-03T14:47:33.936Z,64.90
2023-04-03T14:50:02.983Z,64.90
2023-04-03T14:52:39.540Z,64.80
2023-04-03T14:55:11.050Z,64.90
2023-04-03T14:57:42.546Z,65.10
2023-04-03T15:00:15.878Z,65.30
2023-04-03T15:02:49.863Z,65.30
2023-04-03T15:05:20.397Z,65.70
2023-04-03T15:07:50.874Z,65.80
2023-04-03T15:10:21.185Z,66.00
2023-04-03T15:12:53.989Z,66.00
2023-04-03T15:15:28.204Z,66.10
2023-04-03T15:18:07.020Z,66.40
2023-04-03T15:20:35.244Z,66.90
2023-04-03T15:23:06.325Z,67.10
2023-04-03T15:25:34.471Z,66.90
2023-04-03T15:28:10.090Z,67.20
2023-04-03T15:30:41.277Z,67.30
2023-04-03T15:33:09.630Z,67.40
2023-04-03T15:35:37.951Z,67.40
2023-04-03T15:38:11.071Z,67.60
2023-04-03T15:40:39.346Z,67.80
2023-04-03T15:43:11.157Z,68.10
2023-04-03T15:45:40.519Z,68.20
2023-04-03T15:48:14.748Z,68.20
2023-04-03T15:50:45.276Z,68.50
2023-04-03T15:53:15.819Z,68.70
2023-04-03T15:55:44.008Z,68.70
2023-04-03T15:58:12.367Z,68.90
2023-04-03T16:00:40.774Z,69.20
2023-04-03T16:03:19.770Z,69.50
2023-04-03T16:05:48.228Z,69.60
2023-04-03T16:08:20.021Z,69.70
2023-04-03T16:10:48.508Z,69.90
2023-04-03T16:13:17.049Z,70.10
2023-04-03T16:15:48.081Z,70.60
2023-04-03T16:18:20.040Z,70.80
2023-04-03T16:20:51.368Z,71.20
2023-04-03T16:23:19.802Z,71.40
2023-04-03T16:25:48.390Z,71.60
2023-04-03T16:28:18.777Z,71.80
2023-04-03T16:30:50.553Z,72.00
2023-04-03T16:33:19.127Z,72.30
2023-04-03T16:35:47.466Z,72.70
2023-04-03T16:38:20.238Z,72.90
2023-04-03T16:40:49.928Z,73.00
2023-04-03T16:43:18.064Z,73.20
2023-04-03T16:45:46.391Z,73.40
2023-04-03T16:48:15.500Z,73.70
2023-04-03T16:50:43.553Z,73.80
2023-04-03T16:53:14.777Z,74.10
2023-04-03T16:55:43.413Z,74.30
2023-04-03T16:58:13.591Z,74.60
2023-04-03T17:00:42.166Z,74.90
2023-04-03T17:03:13.334Z,75.00
2023-04-03T17:05:41.599Z,75.20
2023-04-03T17:08:09.931Z,75.30
2023-04-03T17:10:38.632Z,75.40
2023-04-03T17:13:07.297Z,75.70
2023-04-03T17:15:40.476Z,75.60
2023-04-03T17:18:09.396Z,75.60
2023-04-03T17:20:39.630Z,75.90
2023-04-03T17:23:07.655Z,75.60
2023-04-03T17:25:35.837Z,75.80
2023-04-03T17:28:06.351Z,75.80
2023-04-03T17:30:37.450Z,75.60
2023-04-03T17:33:05.686Z,75.80
2023-04-03T17:35:33.837Z,75.50
2023-04-03T17:38:05.300Z,75.80
2023-04-03T17:40:33.438Z,75.70
2023-04-03T17:43:01.607Z,76.00
2023-04-03T17:45:29.726Z,75.70
2023-04-03T17:47:58.843Z,75.90
2023-04-03T17:50:29.162Z,76.10
2023-04-03T17:52:57.276Z,76.10
2023-04-03T17:55:27.772Z,76.30
2023-04-03T17:57:58.478Z,76.40
2023-04-03T18:00:32.755Z,76.50
2023-04-03T18:03:04.030Z,77.00
2023-04-03T18:05:32.678Z,77.10
2023-04-03T18:08:01.413Z,77.10
2023-04-03T18:10:33.420Z,77.30
2023-04-03T18:13:01.426Z,77.40
2023-04-03T18:15:29.536Z,77.50
2023-04-03T18:17:58.493Z,77.40
2023-04-03T18:20:27.243Z,77.70
2023-04-03T18:22:58.558Z,77.90
2023-04-03T18:25:29.034Z,78.00
2023-04-03T18:27:59.424Z,77.80
2023-04-03T18:30:27.675Z,77.40
2023-04-03T18:32:55.814Z,77.70
2023-04-03T18:35:27.033Z,77.80
2023-04-03T18:37:55.091Z,78.00
2023-04-03T18:40:26.278Z,78.20
2023-04-03T18:42:56.732Z,78.30
2023-04-03T18:45:28.290Z,78.30
2023-04-03T18:47:59.408Z,78.70
2023-04-03T18:50:30.422Z,79.00
2023-04-03T18:53:01.028Z,78.60
2023-04-03T18:55:36.111Z,79.00
2023-04-03T18:58:09.515Z,78.90
2023-04-03T19:00:43.174Z,79.10
2023-04-03T19:03:14.624Z,79.30
2023-04-03T19:05:47.565Z,79.30
2023-04-03T19:08:18.196Z,79.30
2023-04-03T19:10:46.356Z,79.50
2023-04-03T19:13:20.056Z,79.50
2023-04-03T19:15:55.406Z,79.80
2023-04-03T19:18:26.497Z,79.70
2023-04-03T19:21:00.591Z,79.90
2023-04-03T19:23:35.234Z,79.90
2023-04-03T19:26:08.563Z,80.40
2023-04-03T19:28:44.415Z,80.40
2023-04-03T19:31:16.469Z,80.50
2023-04-03T19:33:49.259Z,80.40
2023-04-03T19:36:23.363Z,80.60
2023-04-03T19:38:51.478Z,80.60
2023-04-03T19:41:20.534Z,80.60
2023-04-03T19:43:57.819Z,80.70
2023-04-03T19:46:29.499Z,80.90
2023-04-03T19:48:57.650Z,80.90
2023-04-03T19:51:26.300Z,81.30
2023-04-03T19:53:54.473Z,81.40
2023-04-03T19:56:25.109Z,81.60
2023-04-03T19:59:00.049Z,81.40
2023-04-03T20:01:30.428Z,81.70
2023-04-03T20:04:04.523Z,82.00
2023-04-03T20:06:37.959Z,81.90
2023-04-03T20:09:05.999Z,81.90
2023-04-03T20:11:38.089Z,82.00
2023-04-03T20:14:07.239Z,81.90
2023-04-03T20:16:38.485Z,82.20
2023-04-03T20:19:07.649Z,82.20
2023-04-03T20:21:40.549Z,82.50
2023-04-03T20:24:12.561Z,82.50
2023-04-03T20:26:46.553Z,82.80
2023-04-03T20:29:17.543Z,82.80
2023-04-03T20:31:49.048Z,82.60
2023-04-03T20:34:19.306Z,82.90
2023-04-03T20:36:49.728Z,82.50
2023-04-03T20:39:21.283Z,82.70
2023-04-03T20:41:55.025Z,83.10
2023-04-03T20:44:26.795Z,83.40
2023-04-03T20:46:55.027Z,83.10
2023-04-03T20:49:28.370Z,83.00
2023-04-03T20:51:56.476Z,83.20
2023-04-03T20:54:26.885Z,83.40
2023-04-03T20:56:59.381Z,83.50
2023-04-03T20:59:30.893Z,83.90
2023-04-03T21:01:59.697Z,83.70
2023-04-03T21:04:36.022Z,83.50
2023-04-03T21:07:25.200Z,83.90
2023-04-03T21:10:12.669Z,83.80
2023-04-03T21:12:59.210Z,83.80
2023-04-03T21:15:45.667Z,83.80
2023-04-03T21:18:24.754Z,84.20
2023-04-03T21:20:55.381Z,84.10
2023-04-03T21:23:29.358Z,84.20
2023-04-03T21:26:00.488Z,84.30
2023-04-03T21:28:31.959Z,85.20
2023-04-03T21:31:00.034Z,84.20
2023-04-03T21:33:31.444Z,84.80
2023-04-03T21:36:00.230Z,85.40
2023-04-03T21:38:28.653Z,85.00
2023-04-03T21:40:57.295Z,85.10
2023-04-03T21:43:28.415Z,85.40
2023-04-03T21:45:57.924Z,85.40
2023-04-03T21:48:27.439Z,85.10
2023-04-03T21:51:04.510Z,85.70
2023-04-03T21:53:35.359Z,85.40
2023-04-03T21:56:05.991Z,85.90
2023-04-03T21:58:37.396Z,86.00
2023-04-03T22:01:12.446Z,86.50
2023-04-03T22:03:41.855Z,86.40
2023-04-03T22:06:13.758Z,86.20
2023-04-03T22:08:41.988Z,86.40
2023-04-03T22:11:11.157Z,86.40
2023-04-03T22:13:47.006Z,86.60
2023-04-03T22:16:20.118Z,87.00
2023-04-03T22:18:51.256Z,87.40
2023-04-03T22:21:22.571Z,87.50
2023-04-03T22:23:53.048Z,87.60
2023-04-03T22:26:22.220Z,88.10
2023-04-03T22:28:50.772Z,88.00
2023-04-03T22:31:21.119Z,87.70
2023-04-03T22:33:55.295Z,88.20
2023-04-03T22:36:23.234Z,88.30
2023-04-03T22:38:54.835Z,88.00
2023-04-03T22:41:26.281Z,88.20
2023-04-03T22:43:59.567Z,88.00
2023-04-03T22:46:30.636Z,88.20
2023-04-03T22:48:59.328Z,87.90
2023-04-03T22:51:27.327Z,88.00
2023-04-03T22:53:55.347Z,88.60
2023-04-03T22:56:26.333Z,89.60
2023-04-03T22:58:54.652Z,88.50
2023-04-03T23:01:25.609Z,88.60
2023-04-03T23:03:53.756Z,88.30
2023-04-03T23:06:21.942Z,88.60
2023-04-03T23:08:53.618Z,89.20
2023-04-03T23:11:24.176Z,88.70
2023-04-03T23:14:00.193Z,89.50
2023-04-03T23:16:33.196Z,89.10
2023-04-03T23:19:04.760Z,89.50
2023-04-03T23:21:35.113Z,89.80
2023-04-03T23:24:03.662Z,89.90
2023-04-03T23:26:37.051Z,89.60
2023-04-03T23:29:07.786Z,90.00
2023-04-03T23:31:36.538Z,90.30
2023-04-03T23:34:07.345Z,90.10
2023-04-03T23:36:35.498Z,90.00
2023-04-03T23:39:05.398Z,90.10
2023-04-03T23:41:41.288Z,90.10
2023-04-03T23:44:14.569Z,90.40
2023-04-03T23:46:49.983Z,90.50
2023-04-03T23:49:22.804Z,90.40
2023-04-03T23:51:51.113Z,90.40
2023-04-03T23:54:23.479Z,90.40
2023-04-03T23:56:51.778Z,90.30
2023-04-03T23:59:24.433Z,90.70
